sensor_id;sensor_type;location;lat;lon;timestamp;pressure;altitude;pressure_sealevel;temperature;humidity
50774;BME280;36745;48.544;8.918;2023-01-25T00:00:08;98877.38;;;2.28;100.00
50774;BME280;36745;48.544;8.918;2023-01-25T00:03:28;98866.66;;;2.19;100.00
50774;BME280;36745;48.544;8.918;2023-01-25T00:06:47;98862.66;;;2.29;100.00
50774;BME280;36745;48.544;8.918;2023-01-25T00:10:07;98864.44;;;2.37;100.00
50774;BME280;36745;48.544;8.918;2023-01-25T00:13:27;98861.25;;;2.35;100.00
50774;BME280;36745;48.544;8.918;2023-01-25T00:16:46;98853.34;;;2.30;100.00
50774;BME280;36745;48.544;8.918;2023-01-25T00:20:06;98858.78;;;2.30;100.00
50774;BME280;36745;48.544;8.918;2023-01-25T00:23:25;98852.16;;;2.43;100.00
50774;BME280;36745;48.544;8.918;2023-01-25T00:26:45;98844.13;;;2.34;100.00
50774;BME280;36745;48.544;8.918;2023-01-25T00:30:04;98830.78;;;2.29;100.00
50774;BME280;36745;48.544;8.918;2023-01-25T00:33:31;98824.47;;;2.25;100.00
50774;BME280;36745;48.544;8.918;2023-01-25T00:36:55;98828.41;;;2.28;100.00
50774;BME280;36745;48.544;8.918;2023-01-25T00:40:15;98839.41;;;2.31;100.00
50774;BME280;36745;48.544;8.918;2023-01-25T00:43:35;98835.97;;;2.34;100.00
50774;BME280;36745;48.544;8.918;2023-01-25T00:46:54;98833.59;;;2.33;100.00
50774;BME280;36745;48.544;8.918;2023-01-25T00:50:14;98846.25;;;2.25;100.00
50774;BME280;36745;48.544;8.918;2023-01-25T00:53:33;98835.25;;;2.22;100.00
50774;BME280;36745;48.544;8.918;2023-01-25T00:56:53;98826.66;;;2.20;100.00
50774;BME280;36745;48.544;8.918;2023-01-25T01:00:14;98827.44;;;2.20;100.00
50774;BME280;36745;48.544;8.918;2023-01-25T01:03:34;98832.97;;;2.24;100.00
50774;BME280;36745;48.544;8.918;2023-01-25T01:06:53;98827.97;;;2.26;100.00
50774;BME280;36745;48.544;8.918;2023-01-25T01:10:13;98823.94;;;2.20;100.00
50774;BME280;36745;48.544;8.918;2023-01-25T01:13:32;98827.34;;;2.17;100.00
50774;BME280;36745;48.544;8.918;2023-01-25T01:16:51;98825.06;;;2.19;100.00
50774;BME280;36745;48.544;8.918;2023-01-25T01:20:11;98823.13;;;2.19;100.00
50774;BME280;36745;48.544;8.918;2023-01-25T01:23:30;98818.16;;;2.21;100.00
50774;BME280;36745;48.544;8.918;2023-01-25T01:26:50;98819.19;;;2.32;100.00
50774;BME280;36745;48.544;8.918;2023-01-25T01:30:09;98828.41;;;2.28;100.00
50774;BME280;36745;48.544;8.918;2023-01-25T01:33:29;98818.25;;;2.25;100.00
50774;BME280;36745;48.544;8.918;2023-01-25T01:36:48;98826.66;;;2.20;100.00
50774;BME280;36745;48.544;8.918;2023-01-25T01:40:09;98828.03;;;2.14;100.00
50774;BME280;36745;48.544;8.918;2023-01-25T01:43:32;98830.13;;;2.04;100.00
50774;BME280;36745;48.544;8.918;2023-01-25T01:46:52;98823.59;;;2.21;100.00
50774;BME280;36745;48.544;8.918;2023-01-25T01:50:17;98812.78;;;2.25;100.00
50774;BME280;36745;48.544;8.918;2023-01-25T01:53:39;98823.31;;;2.10;100.00
50774;BME280;36745;48.544;8.918;2023-01-25T01:57:11;98814.44;;;2.14;100.00
50774;BME280;36745;48.544;8.918;2023-01-25T02:00:33;98821.41;;;2.27;100.00
50774;BME280;36745;48.544;8.918;2023-01-25T02:03:54;98823.75;;;2.28;100.00
50774;BME280;36745;48.544;8.918;2023-01-25T02:07:21;98818.31;;;2.28;100.00
50774;BME280;36745;48.544;8.918;2023-01-25T02:10:41;98825.69;;;2.28;100.00
50774;BME280;36745;48.544;8.918;2023-01-25T02:14:02;98815.06;;;2.23;100.00
50774;BME280;36745;48.544;8.918;2023-01-25T02:17:25;98813.00;;;2.32;100.00
50774;BME280;36745;48.544;8.918;2023-01-25T02:20:46;98819.38;;;2.39;100.00
50774;BME280;36745;48.544;8.918;2023-01-25T02:24:08;98809.03;;;2.29;100.00
50774;BME280;36745;48.544;8.918;2023-01-25T02:27:29;98807.81;;;2.27;100.00
50774;BME280;36745;48.544;8.918;2023-01-25T02:30:48;98809.81;;;2.30;100.00
50774;BME280;36745;48.544;8.918;2023-01-25T02:34:08;98808.44;;;2.36;100.00
50774;BME280;36745;48.544;8.918;2023-01-25T02:37:27;98804.56;;;2.37;100.00
50774;BME280;36745;48.544;8.918;2023-01-25T02:40:57;98794.28;;;2.30;100.00
50774;BME280;36745;48.544;8.918;2023-01-25T02:44:20;98800.00;;;2.41;100.00
50774;BME280;36745;48.544;8.918;2023-01-25T02:47:41;98806.31;;;2.45;100.00
50774;BME280;36745;48.544;8.918;2023-01-25T02:51:01;98796.75;;;2.35;100.00
50774;BME280;36745;48.544;8.918;2023-01-25T02:54:20;98790.31;;;2.28;100.00
50774;BME280;36745;48.544;8.918;2023-01-25T02:57:40;98783.66;;;2.41;100.00
50774;BME280;36745;48.544;8.918;2023-01-25T03:01:00;98789.13;;;2.41;100.00
50774;BME280;36745;48.544;8.918;2023-01-25T03:04:19;98788.91;;;2.34;100.00
50774;BME280;36745;48.544;8.918;2023-01-25T03:07:39;98792.09;;;2.36;100.00
50774;BME280;36745;48.544;8.918;2023-01-25T03:10:59;98783.13;;;2.35;100.00
50774;BME280;36745;48.544;8.918;2023-01-25T03:14:19;98778.91;;;2.38;100.00
50774;BME280;36745;48.544;8.918;2023-01-25T03:17:38;98790.69;;;2.42;100.00
50774;BME280;36745;48.544;8.918;2023-01-25T03:21:07;98785.94;;;2.39;100.00
50774;BME280;36745;48.544;8.918;2023-01-25T03:24:27;98777.88;;;2.42;100.00
50774;BME280;36745;48.544;8.918;2023-01-25T03:27:47;98782.97;;;2.44;100.00
50774;BME280;36745;48.544;8.918;2023-01-25T03:31:07;98762.69;;;2.41;100.00
50774;BME280;36745;48.544;8.918;2023-01-25T03:34:27;98764.97;;;2.39;100.00
50774;BME280;36745;48.544;8.918;2023-01-25T03:37:46;98751.88;;;2.45;100.00
50774;BME280;36745;48.544;8.918;2023-01-25T03:41:05;98751.88;;;2.45;100.00
50774;BME280;36745;48.544;8.918;2023-01-25T03:44:26;98750.03;;;2.49;100.00
50774;BME280;36745;48.544;8.918;2023-01-25T03:47:45;98749.59;;;2.47;100.00
50774;BME280;36745;48.544;8.918;2023-01-25T03:51:05;98748.56;;;2.36;100.00
50774;BME280;36745;48.544;8.918;2023-01-25T03:54:24;98744.69;;;2.37;100.00
50774;BME280;36745;48.544;8.918;2023-01-25T03:57:43;98751.00;;;2.41;100.00
50774;BME280;36745;48.544;8.918;2023-01-25T04:01:03;98746.16;;;2.50;100.00
50774;BME280;36745;48.544;8.918;2023-01-25T04:04:23;98748.91;;;2.50;100.00
50774;BME280;36745;48.544;8.918;2023-01-25T04:07:42;98751.06;;;2.60;100.00
50774;BME280;36745;48.544;8.918;2023-01-25T04:11:04;98747.94;;;2.42;100.00
50774;BME280;36745;48.544;8.918;2023-01-25T04:14:24;98746.19;;;2.34;100.00
50774;BME280;36745;48.544;8.918;2023-01-25T04:17:44;98748.44;;;2.32;100.00
50774;BME280;36745;48.544;8.918;2023-01-25T04:21:03;98753.13;;;2.32;100.00
50774;BME280;36745;48.544;8.918;2023-01-25T04:24:23;98747.84;;;2.39;100.00
50774;BME280;36745;48.544;8.918;2023-01-25T04:27:42;98751.63;;;2.50;100.00
50774;BME280;36745;48.544;8.918;2023-01-25T04:31:01;98744.84;;;2.44;100.00
50774;BME280;36745;48.544;8.918;2023-01-25T04:34:21;98743.28;;;2.43;100.00
50774;BME280;36745;48.544;8.918;2023-01-25T04:37:42;98732.66;;;2.53;100.00
50774;BME280;36745;48.544;8.918;2023-01-25T04:41:01;98744.16;;;2.47;100.00
50774;BME280;36745;48.544;8.918;2023-01-25T04:44:23;98743.97;;;2.40;100.00
50774;BME280;36745;48.544;8.918;2023-01-25T04:47:42;98738.72;;;2.47;100.00
50774;BME280;36745;48.544;8.918;2023-01-25T04:51:02;98741.00;;;2.45;100.00
50774;BME280;36745;48.544;8.918;2023-01-25T04:54:21;98741.19;;;2.52;100.00
50774;BME280;36745;48.544;8.918;2023-01-25T04:57:40;98728.78;;;2.54;100.00
50774;BME280;36745;48.544;8.918;2023-01-25T05:01:00;98737.13;;;2.46;100.00
50774;BME280;36745;48.544;8.918;2023-01-25T05:04:20;98737.84;;;2.43;100.00
50774;BME280;36745;48.544;8.918;2023-01-25T05:07:40;98730.56;;;2.47;100.00
50774;BME280;36745;48.544;8.918;2023-01-25T05:10:59;98720.47;;;2.47;100.00
50774;BME280;36745;48.544;8.918;2023-01-25T05:14:18;98721.59;;;2.46;100.00
50774;BME280;36745;48.544;8.918;2023-01-25T05:17:38;98731.69;;;2.46;100.00
50774;BME280;36745;48.544;8.918;2023-01-25T05:20:57;98719.03;;;2.38;100.00
50774;BME280;36745;48.544;8.918;2023-01-25T05:24:16;98728.19;;;2.45;100.00
50774;BME280;36745;48.544;8.918;2023-01-25T05:27:36;98718.53;;;2.48;100.00
50774;BME280;36745;48.544;8.918;2023-01-25T05:30:55;98725.03;;;2.28;100.00
50774;BME280;36745;48.544;8.918;2023-01-25T05:34:14;98726.25;;;2.30;100.00
50774;BME280;36745;48.544;8.918;2023-01-25T05:37:34;98724.34;;;2.31;100.00
50774;BME280;36745;48.544;8.918;2023-01-25T05:40:56;98718.16;;;2.34;100.00
50774;BME280;36745;48.544;8.918;2023-01-25T05:44:15;98729.94;;;2.38;100.00
50774;BME280;36745;48.544;8.918;2023-01-25T05:47:35;98725.66;;;2.37;100.00
50774;BME280;36745;48.544;8.918;2023-01-25T05:50:56;98722.22;;;2.40;100.00
50774;BME280;36745;48.544;8.918;2023-01-25T05:54:16;98720.34;;;2.44;100.00
50774;BME280;36745;48.544;8.918;2023-01-25T05:57:35;98721.34;;;2.36;100.00
50774;BME280;36745;48.544;8.918;2023-01-25T06:00:55;98701.16;;;2.37;100.00
50774;BME280;36745;48.544;8.918;2023-01-25T06:04:14;98712.47;;;2.39;100.00
50774;BME280;36745;48.544;8.918;2023-01-25T06:07:34;98711.50;;;2.47;100.00
50774;BME280;36745;48.544;8.918;2023-01-25T06:10:57;98710.19;;;2.41;100.00
50774;BME280;36745;48.544;8.918;2023-01-25T06:14:16;98717.50;;;2.37;100.00
50774;BME280;36745;48.544;8.918;2023-01-25T06:17:35;98711.59;;;2.35;100.00
50774;BME280;36745;48.544;8.918;2023-01-25T06:20:55;98702.38;;;2.39;100.00
50774;BME280;36745;48.544;8.918;2023-01-25T06:24:15;98704.31;;;2.39;100.00
50774;BME280;36745;48.544;8.918;2023-01-25T06:27:34;98715.28;;;2.27;100.00
50774;BME280;36745;48.544;8.918;2023-01-25T06:30:53;98705.97;;;2.28;100.00
50774;BME280;36745;48.544;8.918;2023-01-25T06:34:13;98709.47;;;2.28;100.00
50774;BME280;36745;48.544;8.918;2023-01-25T06:37:32;98713.97;;;2.21;100.00
50774;BME280;36745;48.544;8.918;2023-01-25T06:40:51;98713.06;;;2.17;100.00
50774;BME280;36745;48.544;8.918;2023-01-25T06:44:10;98705.63;;;2.29;100.00
50774;BME280;36745;48.544;8.918;2023-01-25T06:47:30;98709.69;;;2.20;100.00
50774;BME280;36745;48.544;8.918;2023-01-25T06:50:53;98707.03;;;2.23;99.47
50774;BME280;36745;48.544;8.918;2023-01-25T06:54:12;98713.88;;;2.17;98.94
50774;BME280;36745;48.544;8.918;2023-01-25T06:57:32;98713.25;;;2.24;99.61
50774;BME280;36745;48.544;8.918;2023-01-25T07:00:51;98708.97;;;2.23;99.77
50774;BME280;36745;48.544;8.918;2023-01-25T07:04:11;98708.69;;;2.28;100.00
50774;BME280;36745;48.544;8.918;2023-01-25T07:07:30;98700.25;;;2.33;99.19
50774;BME280;36745;48.544;8.918;2023-01-25T07:10:53;98684.13;;;2.40;98.62
50774;BME280;36745;48.544;8.918;2023-01-25T07:14:13;98692.63;;;2.23;98.88
50774;BME280;36745;48.544;8.918;2023-01-25T07:17:32;98686.84;;;2.24;99.08
50774;BME280;36745;48.544;8.918;2023-01-25T07:20:52;98682.47;;;2.35;98.68
50774;BME280;36745;48.544;8.918;2023-01-25T07:24:12;98680.25;;;2.41;98.21
50774;BME280;36745;48.544;8.918;2023-01-25T07:27:32;98674.50;;;2.27;98.55
50774;BME280;36745;48.544;8.918;2023-01-25T07:30:52;98670.69;;;2.31;98.39
50774;BME280;36745;48.544;8.918;2023-01-25T07:34:11;98670.06;;;2.38;98.43
50774;BME280;36745;48.544;8.918;2023-01-25T07:37:31;98658.41;;;2.37;98.06
50774;BME280;36745;48.544;8.918;2023-01-25T07:40:52;98667.00;;;2.39;98.93
50774;BME280;36745;48.544;8.918;2023-01-25T07:44:12;98664.75;;;2.26;97.43
50774;BME280;36745;48.544;8.918;2023-01-25T07:47:31;98660.63;;;2.32;98.17
50774;BME280;36745;48.544;8.918;2023-01-25T07:50:51;98655.31;;;2.39;97.82
50774;BME280;36745;48.544;8.918;2023-01-25T07:54:29;98657.44;;;2.30;97.64
50774;BME280;36745;48.544;8.918;2023-01-25T07:57:48;98663.47;;;2.39;97.38
50774;BME280;36745;48.544;8.918;2023-01-25T08:01:16;98665.66;;;2.49;97.04
50774;BME280;36745;48.544;8.918;2023-01-25T08:04:36;98657.88;;;2.16;96.17
50774;BME280;36745;48.544;8.918;2023-01-25T08:07:57;98655.81;;;2.09;96.77
50774;BME280;36745;48.544;8.918;2023-01-25T08:11:18;98658.53;;;2.09;95.73
50774;BME280;36745;48.544;8.918;2023-01-25T08:14:38;98658.47;;;2.41;96.39
50774;BME280;36745;48.544;8.918;2023-01-25T08:18:00;98666.19;;;2.39;95.16
50774;BME280;36745;48.544;8.918;2023-01-25T08:21:22;98672.78;;;2.22;95.94
50774;BME280;36745;48.544;8.918;2023-01-25T08:24:48;98666.56;;;2.22;95.60
50774;BME280;36745;48.544;8.918;2023-01-25T08:28:08;98674.38;;;2.23;96.06
50774;BME280;36745;48.544;8.918;2023-01-25T08:31:28;98669.13;;;2.30;95.87
50774;BME280;36745;48.544;8.918;2023-01-25T08:34:48;98665.94;;;2.44;96.23
50774;BME280;36745;48.544;8.918;2023-01-25T08:38:07;98670.06;;;2.38;95.36
50774;BME280;36745;48.544;8.918;2023-01-25T08:41:27;98668.66;;;2.44;96.09
50774;BME280;36745;48.544;8.918;2023-01-25T08:44:46;98657.66;;;2.56;94.69
50774;BME280;36745;48.544;8.918;2023-01-25T08:48:06;98658.66;;;2.48;95.02
50774;BME280;36745;48.544;8.918;2023-01-25T08:51:26;98660.75;;;2.39;95.06
50774;BME280;36745;48.544;8.918;2023-01-25T08:54:46;98645.97;;;2.21;93.78
50774;BME280;36745;48.544;8.918;2023-01-25T08:58:05;98651.28;;;2.33;95.62
50774;BME280;36745;48.544;8.918;2023-01-25T09:01:28;98642.78;;;2.34;95.56
50774;BME280;36745;48.544;8.918;2023-01-25T09:04:48;98644.34;;;2.35;95.02
50774;BME280;36745;48.544;8.918;2023-01-25T09:08:07;98643.75;;;2.42;94.83
50774;BME280;36745;48.544;8.918;2023-01-25T09:11:28;98639.38;;;2.37;94.76
50774;BME280;36745;48.544;8.918;2023-01-25T09:14:47;98633.00;;;2.49;95.56
50774;BME280;36745;48.544;8.918;2023-01-25T09:18:07;98620.97;;;2.50;94.01
50774;BME280;36745;48.544;8.918;2023-01-25T09:21:27;98626.94;;;2.56;93.76
50774;BME280;36745;48.544;8.918;2023-01-25T09:24:47;98626.06;;;2.51;94.19
50774;BME280;36745;48.544;8.918;2023-01-25T09:28:10;98624.06;;;2.33;93.51
50774;BME280;36745;48.544;8.918;2023-01-25T09:31:30;98625.47;;;2.42;93.69
50774;BME280;36745;48.544;8.918;2023-01-25T09:34:49;98632.84;;;2.42;93.24
50774;BME280;36745;48.544;8.918;2023-01-25T09:38:09;98640.03;;;2.50;93.18
50774;BME280;36745;48.544;8.918;2023-01-25T09:41:48;98632.13;;;2.45;92.98
50774;BME280;36745;48.544;8.918;2023-01-25T09:45:23;98634.69;;;2.38;92.61
50774;BME280;36745;48.544;8.918;2023-01-25T09:48:49;98625.38;;;2.39;93.55
50774;BME280;36745;48.544;8.918;2023-01-25T09:55:33;98624.19;;;2.56;93.21
50774;BME280;36745;48.544;8.918;2023-01-25T09:58:56;98627.56;;;2.49;92.51
50774;BME280;36745;48.544;8.918;2023-01-25T10:05:49;98622.09;;;2.49;93.30
50774;BME280;36745;48.544;8.918;2023-01-25T10:09:15;98624.34;;;2.28;91.59
50774;BME280;36745;48.544;8.918;2023-01-25T10:12:39;98626.31;;;2.11;91.73
50774;BME280;36745;48.544;8.918;2023-01-25T10:16:21;98621.56;;;2.24;92.79
50774;BME280;36745;48.544;8.918;2023-01-25T10:26:35;98614.63;;;2.27;92.28
50774;BME280;36745;48.544;8.918;2023-01-25T10:29:55;98614.78;;;2.34;93.02
50774;BME280;36745;48.544;8.918;2023-01-25T10:33:17;98606.72;;;2.57;92.33
50774;BME280;36745;48.544;8.918;2023-01-25T10:36:37;98602.44;;;2.56;91.92
50774;BME280;36745;48.544;8.918;2023-01-25T10:40:00;98598.13;;;2.54;92.29
50774;BME280;36745;48.544;8.918;2023-01-25T10:43:20;98595.44;;;2.39;92.48
50774;BME280;36745;48.544;8.918;2023-01-25T10:46:40;98591.38;;;2.48;92.39
50774;BME280;36745;48.544;8.918;2023-01-25T10:50:02;98581.72;;;2.51;91.98
50774;BME280;36745;48.544;8.918;2023-01-25T10:56:50;98567.09;;;2.40;91.99
50774;BME280;36745;48.544;8.918;2023-01-25T11:00:23;98567.66;;;2.49;91.93
50774;BME280;36745;48.544;8.918;2023-01-25T11:03:45;98571.34;;;2.37;91.44
50774;BME280;36745;48.544;8.918;2023-01-25T11:07:04;98566.53;;;2.31;91.89
50774;BME280;36745;48.544;8.918;2023-01-25T11:13:52;98560.69;;;2.32;92.38
50774;BME280;36745;48.544;8.918;2023-01-25T11:20:40;98550.19;;;2.31;91.51
50774;BME280;36745;48.544;8.918;2023-01-25T11:24:13;98564.94;;;2.30;92.76
50774;BME280;36745;48.544;8.918;2023-01-25T11:27:34;98557.56;;;2.30;91.70
50774;BME280;36745;48.544;8.918;2023-01-25T11:30:53;98547.19;;;2.36;92.50
50774;BME280;36745;48.544;8.918;2023-01-25T11:34:14;98557.06;;;2.44;93.11
50774;BME280;36745;48.544;8.918;2023-01-25T11:38:20;98556.16;;;2.56;92.52
50774;BME280;36745;48.544;8.918;2023-01-25T11:41:22;98554.28;;;2.40;92.89
50774;BME280;36745;48.544;8.918;2023-01-25T11:44:50;98539.44;;;2.38;91.79
50774;BME280;36745;48.544;8.918;2023-01-25T11:51:53;98534.34;;;2.17;92.53
50774;BME280;36745;48.544;8.918;2023-01-25T12:15:53;98475.31;;;2.37;93.27
50774;BME280;36745;48.544;8.918;2023-01-25T12:29:55;98450.09;;;2.40;93.20
50774;BME280;36745;48.544;8.918;2023-01-25T12:33:19;98442.16;;;2.31;91.88
50774;BME280;36745;48.544;8.918;2023-01-25T12:36:44;98432.69;;;2.25;91.60
50774;BME280;36745;48.544;8.918;2023-01-25T12:40:11;98435.72;;;2.20;91.13
50774;BME280;36745;48.544;8.918;2023-01-25T12:44:35;98423.44;;;1.91;91.51
50774;BME280;36745;48.544;8.918;2023-01-25T12:54:16;98402.91;;;2.13;93.61
50774;BME280;36745;48.544;8.918;2023-01-25T12:58:23;98407.78;;;2.23;94.00
50774;BME280;36745;48.544;8.918;2023-01-25T13:04:54;98400.63;;;2.15;93.16
50774;BME280;36745;48.544;8.918;2023-01-25T13:08:33;98387.31;;;2.10;93.47
50774;BME280;36745;48.544;8.918;2023-01-25T13:11:55;98390.66;;;2.23;94.22
50774;BME280;36745;48.544;8.918;2023-01-25T13:15:33;98374.47;;;2.30;93.86
50774;BME280;36745;48.544;8.918;2023-01-25T13:18:53;98372.06;;;2.25;93.18
50774;BME280;36745;48.544;8.918;2023-01-25T13:22:12;98356.72;;;2.36;94.15
50774;BME280;36745;48.544;8.918;2023-01-25T13:25:32;98363.56;;;2.49;92.59
50774;BME280;36745;48.544;8.918;2023-01-25T13:28:51;98364.81;;;2.32;92.42
50774;BME280;36745;48.544;8.918;2023-01-25T13:32:12;98362.03;;;2.29;91.91
50774;BME280;36745;48.544;8.918;2023-01-25T13:35:33;98351.88;;;2.26;93.10
50774;BME280;36745;48.544;8.918;2023-01-25T13:38:53;98352.16;;;2.21;92.86
50774;BME280;36745;48.544;8.918;2023-01-25T13:45:33;98339.06;;;2.07;93.57
50774;BME280;36745;48.544;8.918;2023-01-25T13:48:58;98336.84;;;2.32;93.75
50774;BME280;36745;48.544;8.918;2023-01-25T13:52:20;98338.63;;;2.24;93.69
50774;BME280;36745;48.544;8.918;2023-01-25T13:55:40;98329.81;;;2.31;93.51
50774;BME280;36745;48.544;8.918;2023-01-25T13:59:00;98322.31;;;2.24;93.50
50774;BME280;36745;48.544;8.918;2023-01-25T14:02:21;98331.00;;;2.33;92.95
50774;BME280;36745;48.544;8.918;2023-01-25T14:05:47;98325.25;;;2.16;93.39
50774;BME280;36745;48.544;8.918;2023-01-25T14:09:11;98320.53;;;2.13;92.83
50774;BME280;36745;48.544;8.918;2023-01-25T14:12:38;98321.50;;;2.24;92.73
50774;BME280;36745;48.544;8.918;2023-01-25T14:15:59;98312.50;;;2.20;93.23
50774;BME280;36745;48.544;8.918;2023-01-25T14:19:22;98314.25;;;2.08;93.38
50774;BME280;36745;48.544;8.918;2023-01-25T14:22:45;98314.38;;;2.16;93.00
50774;BME280;36745;48.544;8.918;2023-01-25T14:29:34;98305.72;;;2.10;92.67
50774;BME280;36745;48.544;8.918;2023-01-25T14:32:54;98313.50;;;2.11;93.03
50774;BME280;36745;48.544;8.918;2023-01-25T14:36:14;98316.72;;;2.17;93.49
50774;BME280;36745;48.544;8.918;2023-01-25T14:39:34;98316.81;;;2.21;93.50
50774;BME280;36745;48.544;8.918;2023-01-25T14:42:53;98322.94;;;2.37;93.32
50774;BME280;36745;48.544;8.918;2023-01-25T14:46:17;98319.16;;;2.22;93.15
50774;BME280;36745;48.544;8.918;2023-01-25T14:49:37;98317.47;;;1.95;91.55
50774;BME280;36745;48.544;8.918;2023-01-25T14:52:57;98317.69;;;1.86;93.21
50774;BME280;36745;48.544;8.918;2023-01-25T14:56:28;98309.97;;;1.88;93.83
50774;BME280;36745;48.544;8.918;2023-01-25T14:59:49;98305.38;;;1.92;94.05
50774;BME280;36745;48.544;8.918;2023-01-25T15:03:13;98303.38;;;2.08;93.40
50774;BME280;36745;48.544;8.918;2023-01-25T15:06:41;98300.66;;;1.89;93.40
50774;BME280;36745;48.544;8.918;2023-01-25T15:10:03;98302.09;;;1.83;92.88
50774;BME280;36745;48.544;8.918;2023-01-25T15:13:24;98303.66;;;1.84;93.56
50774;BME280;36745;48.544;8.918;2023-01-25T15:16:43;98297.09;;;1.85;94.52
50774;BME280;36745;48.544;8.918;2023-01-25T15:20:03;98289.66;;;1.82;94.33
50774;BME280;36745;48.544;8.918;2023-01-25T15:23:26;98285.78;;;1.83;94.17
50774;BME280;36745;48.544;8.918;2023-01-25T15:26:48;98272.75;;;1.92;94.18
50774;BME280;36745;48.544;8.918;2023-01-25T15:30:15;98276.88;;;2.05;94.13
50774;BME280;36745;48.544;8.918;2023-01-25T15:33:35;98276.47;;;2.03;92.29
50774;BME280;36745;48.544;8.918;2023-01-25T15:36:54;98265.97;;;1.63;93.85
50774;BME280;36745;48.544;8.918;2023-01-25T15:40:14;98256.03;;;1.71;94.51
50774;BME280;36745;48.544;8.918;2023-01-25T15:43:33;98253.56;;;2.04;94.49
50774;BME280;36745;48.544;8.918;2023-01-25T15:46:53;98254.72;;;1.84;94.03
50774;BME280;36745;48.544;8.918;2023-01-25T15:50:15;98250.16;;;1.88;93.39
50774;BME280;36745;48.544;8.918;2023-01-25T15:53:36;98245.38;;;1.82;93.24
50774;BME280;36745;48.544;8.918;2023-01-25T15:56:55;98240.78;;;1.86;93.02
50774;BME280;36745;48.544;8.918;2023-01-25T16:00:16;98240.72;;;1.82;93.68
50774;BME280;36745;48.544;8.918;2023-01-25T16:03:36;98232.00;;;1.73;94.16
50774;BME280;36745;48.544;8.918;2023-01-25T16:06:59;98225.84;;;1.76;93.93
50774;BME280;36745;48.544;8.918;2023-01-25T16:10:21;98225.00;;;1.72;94.21
50774;BME280;36745;48.544;8.918;2023-01-25T16:13:40;98220.22;;;1.65;94.60
50774;BME280;36745;48.544;8.918;2023-01-25T16:17:01;98217.09;;;1.86;93.74
50774;BME280;36745;48.544;8.918;2023-01-25T16:20:22;98212.09;;;1.88;93.29
50774;BME280;36745;48.544;8.918;2023-01-25T16:23:41;98208.34;;;1.96;93.25
50774;BME280;36745;48.544;8.918;2023-01-25T16:27:00;98203.38;;;1.79;93.19
50774;BME280;36745;48.544;8.918;2023-01-25T16:30:21;98198.81;;;1.83;93.72
50774;BME280;36745;48.544;8.918;2023-01-25T16:33:41;98202.31;;;1.64;93.83
50774;BME280;36745;48.544;8.918;2023-01-25T16:37:03;98196.84;;;1.61;93.97
50774;BME280;36745;48.544;8.918;2023-01-25T16:43:43;98196.94;;;1.68;93.55
50774;BME280;36745;48.544;8.918;2023-01-25T16:47:02;98191.50;;;1.68;94.19
50774;BME280;36745;48.544;8.918;2023-01-25T16:50:23;98192.97;;;1.62;93.85
50774;BME280;36745;48.544;8.918;2023-01-25T16:53:43;98198.97;;;1.52;93.97
50774;BME280;36745;48.544;8.918;2023-01-25T16:57:02;98189.09;;;1.63;94.87
50774;BME280;36745;48.544;8.918;2023-01-25T17:00:22;98195.94;;;1.76;94.49
50774;BME280;36745;48.544;8.918;2023-01-25T17:03:41;98191.19;;;1.92;93.21
50774;BME280;36745;48.544;8.918;2023-01-25T17:07:01;98187.66;;;1.69;94.75
50774;BME280;36745;48.544;8.918;2023-01-25T17:10:20;98186.06;;;1.68;94.72
50774;BME280;36745;48.544;8.918;2023-01-25T17:13:40;98187.78;;;1.76;94.65
50774;BME280;36745;48.544;8.918;2023-01-25T17:16:59;98185.63;;;1.85;94.55
50774;BME280;36745;48.544;8.918;2023-01-25T17:20:19;98177.09;;;1.87;94.20
50774;BME280;36745;48.544;8.918;2023-01-25T17:23:39;98182.06;;;1.81;94.56
50774;BME280;36745;48.544;8.918;2023-01-25T17:26:59;98176.91;;;1.76;94.90
50774;BME280;36745;48.544;8.918;2023-01-25T17:30:19;98171.53;;;1.80;95.35
50774;BME280;36745;48.544;8.918;2023-01-25T17:33:39;98173.06;;;1.77;95.70
50774;BME280;36745;48.544;8.918;2023-01-25T17:36:58;98167.94;;;1.72;95.71
50774;BME280;36745;48.544;8.918;2023-01-25T17:40:18;98167.63;;;1.77;96.31
50774;BME280;36745;48.544;8.918;2023-01-25T17:43:37;98159.16;;;1.82;95.93
50774;BME280;36745;48.544;8.918;2023-01-25T17:46:57;98159.16;;;1.82;95.36
50774;BME280;36745;48.544;8.918;2023-01-25T17:50:16;98147.56;;;1.85;96.05
50774;BME280;36745;48.544;8.918;2023-01-25T17:53:36;98149.88;;;1.83;95.67
50774;BME280;36745;48.544;8.918;2023-01-25T17:56:59;98149.44;;;1.81;95.49
50774;BME280;36745;48.544;8.918;2023-01-25T18:00:22;98142.28;;;1.73;95.16
50774;BME280;36745;48.544;8.918;2023-01-25T18:03:42;98136.16;;;1.76;95.48
50774;BME280;36745;48.544;8.918;2023-01-25T18:07:02;98131.00;;;1.71;95.35
50774;BME280;36745;48.544;8.918;2023-01-25T18:10:21;98137.78;;;1.81;96.00
50774;BME280;36745;48.544;8.918;2023-01-25T18:13:41;98132.69;;;1.79;95.89
50774;BME280;36745;48.544;8.918;2023-01-25T18:17:01;98127.16;;;1.72;95.47
50774;BME280;36745;48.544;8.918;2023-01-25T18:20:20;98117.91;;;1.77;96.24
50774;BME280;36745;48.544;8.918;2023-01-25T18:23:41;98121.81;;;1.79;95.01
50774;BME280;36745;48.544;8.918;2023-01-25T18:27:06;98119.41;;;1.74;95.67
50774;BME280;36745;48.544;8.918;2023-01-25T18:30:42;98124.19;;;1.81;95.83
50774;BME280;36745;48.544;8.918;2023-01-25T18:34:01;98118.75;;;1.81;95.39
50774;BME280;36745;48.544;8.918;2023-01-25T18:37:21;98107.81;;;1.77;95.14
50774;BME280;36745;48.544;8.918;2023-01-25T18:40:43;98108.66;;;1.81;95.93
50774;BME280;36745;48.544;8.918;2023-01-25T18:44:03;98106.00;;;1.85;95.01
50774;BME280;36745;48.544;8.918;2023-01-25T18:47:23;98104.91;;;1.89;94.44
50774;BME280;36745;48.544;8.918;2023-01-25T18:50:42;98090.91;;;1.87;95.20
50774;BME280;36745;48.544;8.918;2023-01-25T18:54:01;98094.75;;;1.86;95.22
50774;BME280;36745;48.544;8.918;2023-01-25T18:57:22;98094.63;;;1.79;95.05
50774;BME280;36745;48.544;8.918;2023-01-25T19:00:42;98089.94;;;1.76;95.06
50774;BME280;36745;48.544;8.918;2023-01-25T19:04:01;98086.00;;;1.74;95.22
50774;BME280;36745;48.544;8.918;2023-01-25T19:07:21;98079.06;;;1.76;95.53
50774;BME280;36745;48.544;8.918;2023-01-25T19:10:40;98086.78;;;1.74;94.84
50774;BME280;36745;48.544;8.918;2023-01-25T19:13:59;98075.13;;;1.74;95.30